Aviation Digital Data Service (ADDS)

Output produced by METARs form (2200 UTC 20 September 2014)
found at http://www.aviationweather.gov/adds/metars/
 
KJFK 201932Z 2020/2124 16015G21KT P6SM SCT025 SCT090 
     FM210300 14011KT P6SM BKN025 BKN070 
     FM210700 16006KT 6SM BR BKN015 
     FM211500 15008KT P6SM SCT015 BKN035 
     FM211900 16008KT P6SM SCT250